sensor_id;sensor_type;location;lat;lon;timestamp;P1;durP1;ratioP1;P2;durP2;ratioP2
54993;SDS011;40891;47.242;8.648;2023-04-08T00:00:55;3.10;;;2.80;;
54993;SDS011;40891;47.242;8.648;2023-04-08T00:03:20;3.10;;;2.80;;
54993;SDS011;40891;47.242;8.648;2023-04-08T00:05:46;3.23;;;2.93;;
54993;SDS011;40891;47.242;8.648;2023-04-08T00:08:11;5.43;;;3.13;;
54993;SDS011;40891;47.242;8.648;2023-04-08T00:10:37;3.77;;;3.37;;
54993;SDS011;40891;47.242;8.648;2023-04-08T00:13:02;5.13;;;3.60;;
54993;SDS011;40891;47.242;8.648;2023-04-08T00:15:28;3.53;;;3.10;;
54993;SDS011;40891;47.242;8.648;2023-04-08T00:17:53;4.50;;;3.00;;
54993;SDS011;40891;47.242;8.648;2023-04-08T00:20:19;4.07;;;3.47;;
54993;SDS011;40891;47.242;8.648;2023-04-08T00:22:46;4.07;;;3.17;;
54993;SDS011;40891;47.242;8.648;2023-04-08T00:25:11;4.03;;;3.40;;
54993;SDS011;40891;47.242;8.648;2023-04-08T00:27:37;4.60;;;3.53;;
54993;SDS011;40891;47.242;8.648;2023-04-08T00:30:02;4.30;;;3.67;;
54993;SDS011;40891;47.242;8.648;2023-04-08T00:32:28;3.90;;;3.50;;
54993;SDS011;40891;47.242;8.648;2023-04-08T00:34:53;5.20;;;3.60;;
54993;SDS011;40891;47.242;8.648;2023-04-08T00:37:19;3.70;;;3.37;;
54993;SDS011;40891;47.242;8.648;2023-04-08T00:39:45;3.90;;;3.50;;
54993;SDS011;40891;47.242;8.648;2023-04-08T00:42:10;3.97;;;3.57;;
54993;SDS011;40891;47.242;8.648;2023-04-08T00:44:36;5.23;;;3.20;;
54993;SDS011;40891;47.242;8.648;2023-04-08T00:47:02;3.67;;;3.30;;
54993;SDS011;40891;47.242;8.648;2023-04-08T00:49:29;5.07;;;3.63;;
54993;SDS011;40891;47.242;8.648;2023-04-08T00:51:55;3.67;;;3.33;;
54993;SDS011;40891;47.242;8.648;2023-04-08T00:54:21;5.27;;;4.07;;
54993;SDS011;40891;47.242;8.648;2023-04-08T00:56:46;5.43;;;3.37;;
54993;SDS011;40891;47.242;8.648;2023-04-08T00:59:11;5.70;;;3.77;;
54993;SDS011;40891;47.242;8.648;2023-04-08T01:01:54;5.13;;;3.77;;
54993;SDS011;40891;47.242;8.648;2023-04-08T01:07:26;4.70;;;3.50;;
54993;SDS011;40891;47.242;8.648;2023-04-08T01:09:55;4.60;;;3.83;;
54993;SDS011;40891;47.242;8.648;2023-04-08T01:12:27;4.63;;;3.50;;
54993;SDS011;40891;47.242;8.648;2023-04-08T01:14:57;4.67;;;3.60;;
54993;SDS011;40891;47.242;8.648;2023-04-08T01:17:25;4.40;;;3.50;;
54993;SDS011;40891;47.242;8.648;2023-04-08T01:19:51;4.90;;;3.87;;
54993;SDS011;40891;47.242;8.648;2023-04-08T01:25:07;5.03;;;3.63;;
54993;SDS011;40891;47.242;8.648;2023-04-08T01:27:40;5.27;;;3.53;;
54993;SDS011;40891;47.242;8.648;2023-04-08T01:30:07;4.10;;;3.53;;
54993;SDS011;40891;47.242;8.648;2023-04-08T01:32:34;4.80;;;3.70;;
54993;SDS011;40891;47.242;8.648;2023-04-08T01:35:00;4.37;;;3.80;;
54993;SDS011;40891;47.242;8.648;2023-04-08T01:37:27;5.03;;;3.50;;
54993;SDS011;40891;47.242;8.648;2023-04-08T01:39:54;4.10;;;3.33;;
54993;SDS011;40891;47.242;8.648;2023-04-08T01:42:21;4.10;;;3.60;;
54993;SDS011;40891;47.242;8.648;2023-04-08T01:44:50;3.93;;;3.27;;
54993;SDS011;40891;47.242;8.648;2023-04-08T01:47:17;5.43;;;4.00;;
54993;SDS011;40891;47.242;8.648;2023-04-08T01:49:43;5.27;;;3.83;;
54993;SDS011;40891;47.242;8.648;2023-04-08T01:52:09;4.03;;;3.50;;
54993;SDS011;40891;47.242;8.648;2023-04-08T01:54:36;5.10;;;3.80;;
54993;SDS011;40891;47.242;8.648;2023-04-08T01:57:03;3.57;;;3.17;;
54993;SDS011;40891;47.242;8.648;2023-04-08T01:59:34;4.07;;;3.67;;
54993;SDS011;40891;47.242;8.648;2023-04-08T02:02:03;4.50;;;3.80;;
54993;SDS011;40891;47.242;8.648;2023-04-08T02:04:30;4.63;;;3.90;;
54993;SDS011;40891;47.242;8.648;2023-04-08T02:06:57;4.67;;;3.90;;
54993;SDS011;40891;47.242;8.648;2023-04-08T02:09:23;4.10;;;3.70;;
54993;SDS011;40891;47.242;8.648;2023-04-08T02:11:49;3.53;;;3.13;;
54993;SDS011;40891;47.242;8.648;2023-04-08T02:14:14;4.40;;;3.50;;
54993;SDS011;40891;47.242;8.648;2023-04-08T02:16:53;4.30;;;3.40;;
54993;SDS011;40891;47.242;8.648;2023-04-08T02:19:28;4.60;;;3.60;;
54993;SDS011;40891;47.242;8.648;2023-04-08T02:22:04;4.07;;;3.13;;
54993;SDS011;40891;47.242;8.648;2023-04-08T02:24:33;4.83;;;3.43;;
54993;SDS011;40891;47.242;8.648;2023-04-08T02:27:01;4.27;;;3.17;;
54993;SDS011;40891;47.242;8.648;2023-04-08T02:29:28;3.93;;;3.10;;
54993;SDS011;40891;47.242;8.648;2023-04-08T02:31:55;4.27;;;3.17;;
54993;SDS011;40891;47.242;8.648;2023-04-08T02:34:22;4.47;;;3.30;;
54993;SDS011;40891;47.242;8.648;2023-04-08T02:36:48;3.47;;;2.60;;
54993;SDS011;40891;47.242;8.648;2023-04-08T02:39:15;2.90;;;2.50;;
54993;SDS011;40891;47.242;8.648;2023-04-08T02:41:41;3.60;;;2.87;;
54993;SDS011;40891;47.242;8.648;2023-04-08T02:44:06;3.80;;;3.07;;
54993;SDS011;40891;47.242;8.648;2023-04-08T02:46:33;4.20;;;2.90;;
54993;SDS011;40891;47.242;8.648;2023-04-08T02:48:59;3.57;;;3.00;;
54993;SDS011;40891;47.242;8.648;2023-04-08T02:51:24;3.70;;;3.07;;
54993;SDS011;40891;47.242;8.648;2023-04-08T02:53:50;5.97;;;2.97;;
54993;SDS011;40891;47.242;8.648;2023-04-08T02:56:15;4.30;;;3.17;;
54993;SDS011;40891;47.242;8.648;2023-04-08T02:58:41;4.50;;;3.20;;
54993;SDS011;40891;47.242;8.648;2023-04-08T03:01:07;5.33;;;3.70;;
54993;SDS011;40891;47.242;8.648;2023-04-08T03:03:32;4.10;;;3.40;;
54993;SDS011;40891;47.242;8.648;2023-04-08T03:05:58;4.47;;;3.57;;
54993;SDS011;40891;47.242;8.648;2023-04-08T03:08:23;5.00;;;3.80;;
54993;SDS011;40891;47.242;8.648;2023-04-08T03:10:48;6.07;;;4.47;;
54993;SDS011;40891;47.242;8.648;2023-04-08T03:13:14;6.80;;;5.13;;
54993;SDS011;40891;47.242;8.648;2023-04-08T03:15:40;6.33;;;4.70;;
54993;SDS011;40891;47.242;8.648;2023-04-08T03:18:06;6.33;;;4.90;;
54993;SDS011;40891;47.242;8.648;2023-04-08T03:20:31;6.23;;;4.70;;
54993;SDS011;40891;47.242;8.648;2023-04-08T03:22:57;6.63;;;5.00;;
54993;SDS011;40891;47.242;8.648;2023-04-08T03:25:22;6.77;;;5.10;;
54993;SDS011;40891;47.242;8.648;2023-04-08T03:27:48;7.07;;;5.00;;
54993;SDS011;40891;47.242;8.648;2023-04-08T03:30:13;5.60;;;4.60;;
54993;SDS011;40891;47.242;8.648;2023-04-08T03:32:38;6.27;;;4.53;;
54993;SDS011;40891;47.242;8.648;2023-04-08T03:35:04;5.87;;;4.77;;
54993;SDS011;40891;47.242;8.648;2023-04-08T03:37:30;6.33;;;4.73;;
54993;SDS011;40891;47.242;8.648;2023-04-08T03:39:56;5.87;;;4.60;;
54993;SDS011;40891;47.242;8.648;2023-04-08T03:42:22;7.53;;;4.93;;
54993;SDS011;40891;47.242;8.648;2023-04-08T03:44:47;6.73;;;4.87;;
54993;SDS011;40891;47.242;8.648;2023-04-08T03:47:13;6.17;;;4.30;;
54993;SDS011;40891;47.242;8.648;2023-04-08T03:49:38;6.80;;;4.50;;
54993;SDS011;40891;47.242;8.648;2023-04-08T03:52:03;6.93;;;4.43;;
54993;SDS011;40891;47.242;8.648;2023-04-08T03:54:29;5.07;;;3.97;;
54993;SDS011;40891;47.242;8.648;2023-04-08T03:56:54;5.73;;;3.87;;
54993;SDS011;40891;47.242;8.648;2023-04-08T03:59:20;5.43;;;3.67;;
54993;SDS011;40891;47.242;8.648;2023-04-08T04:01:45;6.07;;;4.10;;
54993;SDS011;40891;47.242;8.648;2023-04-08T04:04:11;6.47;;;4.37;;
54993;SDS011;40891;47.242;8.648;2023-04-08T04:06:37;7.03;;;4.00;;
54993;SDS011;40891;47.242;8.648;2023-04-08T04:09:02;6.93;;;4.50;;
54993;SDS011;40891;47.242;8.648;2023-04-08T04:11:27;7.50;;;4.93;;
54993;SDS011;40891;47.242;8.648;2023-04-08T04:13:53;9.37;;;5.03;;
54993;SDS011;40891;47.242;8.648;2023-04-08T04:16:18;14.87;;;7.30;;
54993;SDS011;40891;47.242;8.648;2023-04-08T04:18:43;13.17;;;6.67;;
54993;SDS011;40891;47.242;8.648;2023-04-08T04:21:09;14.13;;;7.37;;
54993;SDS011;40891;47.242;8.648;2023-04-08T04:23:34;11.60;;;6.93;;
54993;SDS011;40891;47.242;8.648;2023-04-08T04:26:00;13.57;;;7.10;;
54993;SDS011;40891;47.242;8.648;2023-04-08T04:28:25;13.23;;;6.03;;
54993;SDS011;40891;47.242;8.648;2023-04-08T04:30:50;11.03;;;5.90;;
54993;SDS011;40891;47.242;8.648;2023-04-08T04:33:16;8.97;;;5.70;;
54993;SDS011;40891;47.242;8.648;2023-04-08T04:35:41;11.37;;;6.03;;
54993;SDS011;40891;47.242;8.648;2023-04-08T04:38:08;11.70;;;6.40;;
54993;SDS011;40891;47.242;8.648;2023-04-08T04:40:36;14.87;;;7.20;;
54993;SDS011;40891;47.242;8.648;2023-04-08T04:43:02;11.60;;;7.03;;
54993;SDS011;40891;47.242;8.648;2023-04-08T04:45:27;12.77;;;7.37;;
54993;SDS011;40891;47.242;8.648;2023-04-08T04:47:52;12.83;;;7.27;;
54993;SDS011;40891;47.242;8.648;2023-04-08T04:50:18;13.30;;;7.80;;
54993;SDS011;40891;47.242;8.648;2023-04-08T04:52:43;11.80;;;6.83;;
54993;SDS011;40891;47.242;8.648;2023-04-08T04:55:09;10.17;;;6.70;;
54993;SDS011;40891;47.242;8.648;2023-04-08T04:57:34;11.23;;;6.93;;
54993;SDS011;40891;47.242;8.648;2023-04-08T05:00:00;9.43;;;6.77;;
54993;SDS011;40891;47.242;8.648;2023-04-08T05:02:25;10.63;;;7.10;;
54993;SDS011;40891;47.242;8.648;2023-04-08T05:04:50;13.50;;;7.50;;
54993;SDS011;40891;47.242;8.648;2023-04-08T05:07:17;13.53;;;8.00;;
54993;SDS011;40891;47.242;8.648;2023-04-08T05:09:43;11.27;;;7.70;;
54993;SDS011;40891;47.242;8.648;2023-04-08T05:12:09;12.03;;;8.10;;
54993;SDS011;40891;47.242;8.648;2023-04-08T05:14:35;11.23;;;7.47;;
54993;SDS011;40891;47.242;8.648;2023-04-08T05:17:00;11.10;;;7.93;;
54993;SDS011;40891;47.242;8.648;2023-04-08T05:19:25;13.43;;;8.40;;
54993;SDS011;40891;47.242;8.648;2023-04-08T05:21:51;11.30;;;7.80;;
54993;SDS011;40891;47.242;8.648;2023-04-08T05:24:16;12.97;;;8.83;;
54993;SDS011;40891;47.242;8.648;2023-04-08T05:26:41;12.73;;;8.57;;
54993;SDS011;40891;47.242;8.648;2023-04-08T05:29:07;14.37;;;9.57;;
54993;SDS011;40891;47.242;8.648;2023-04-08T05:31:32;11.20;;;8.53;;
54993;SDS011;40891;47.242;8.648;2023-04-08T05:33:57;12.57;;;9.13;;
54993;SDS011;40891;47.242;8.648;2023-04-08T05:36:23;14.07;;;9.37;;
54993;SDS011;40891;47.242;8.648;2023-04-08T05:38:48;14.37;;;9.40;;
54993;SDS011;40891;47.242;8.648;2023-04-08T05:41:13;14.90;;;10.30;;
54993;SDS011;40891;47.242;8.648;2023-04-08T05:43:39;12.87;;;9.27;;
54993;SDS011;40891;47.242;8.648;2023-04-08T05:46:08;15.57;;;9.30;;
54993;SDS011;40891;47.242;8.648;2023-04-08T05:48:34;13.77;;;9.47;;
54993;SDS011;40891;47.242;8.648;2023-04-08T05:51:00;14.10;;;9.83;;
54993;SDS011;40891;47.242;8.648;2023-04-08T05:53:26;12.87;;;9.37;;
54993;SDS011;40891;47.242;8.648;2023-04-08T05:55:51;14.23;;;9.17;;
54993;SDS011;40891;47.242;8.648;2023-04-08T05:58:16;13.37;;;8.90;;
54993;SDS011;40891;47.242;8.648;2023-04-08T06:00:42;14.20;;;9.37;;
54993;SDS011;40891;47.242;8.648;2023-04-08T06:03:07;12.60;;;8.77;;
54993;SDS011;40891;47.242;8.648;2023-04-08T06:05:32;12.37;;;9.27;;
54993;SDS011;40891;47.242;8.648;2023-04-08T06:07:58;11.10;;;7.60;;
54993;SDS011;40891;47.242;8.648;2023-04-08T06:10:23;9.17;;;6.80;;
54993;SDS011;40891;47.242;8.648;2023-04-08T06:12:48;11.40;;;7.03;;
54993;SDS011;40891;47.242;8.648;2023-04-08T06:15:14;9.17;;;6.70;;
54993;SDS011;40891;47.242;8.648;2023-04-08T06:17:40;11.73;;;7.33;;
54993;SDS011;40891;47.242;8.648;2023-04-08T06:20:06;9.43;;;6.97;;
54993;SDS011;40891;47.242;8.648;2023-04-08T06:22:33;9.47;;;6.50;;
54993;SDS011;40891;47.242;8.648;2023-04-08T06:25:00;11.13;;;7.67;;
54993;SDS011;40891;47.242;8.648;2023-04-08T06:27:25;10.07;;;6.90;;
54993;SDS011;40891;47.242;8.648;2023-04-08T06:29:50;9.57;;;6.57;;
54993;SDS011;40891;47.242;8.648;2023-04-08T06:32:17;9.83;;;6.83;;
54993;SDS011;40891;47.242;8.648;2023-04-08T06:34:43;9.13;;;5.80;;
54993;SDS011;40891;47.242;8.648;2023-04-08T06:37:09;7.50;;;5.93;;
54993;SDS011;40891;47.242;8.648;2023-04-08T06:39:34;7.80;;;5.90;;
54993;SDS011;40891;47.242;8.648;2023-04-08T06:42:00;9.17;;;6.50;;
54993;SDS011;40891;47.242;8.648;2023-04-08T06:44:26;9.63;;;5.67;;
54993;SDS011;40891;47.242;8.648;2023-04-08T06:46:51;8.17;;;6.33;;
54993;SDS011;40891;47.242;8.648;2023-04-08T06:49:16;8.20;;;6.40;;
54993;SDS011;40891;47.242;8.648;2023-04-08T06:51:42;6.10;;;4.40;;
54993;SDS011;40891;47.242;8.648;2023-04-08T06:54:07;6.40;;;4.80;;
54993;SDS011;40891;47.242;8.648;2023-04-08T06:56:35;6.30;;;4.73;;
54993;SDS011;40891;47.242;8.648;2023-04-08T06:59:01;7.57;;;5.63;;
54993;SDS011;40891;47.242;8.648;2023-04-08T07:01:27;6.47;;;5.40;;
54993;SDS011;40891;47.242;8.648;2023-04-08T07:03:52;5.83;;;4.53;;
54993;SDS011;40891;47.242;8.648;2023-04-08T07:06:18;8.40;;;5.93;;
54993;SDS011;40891;47.242;8.648;2023-04-08T07:08:43;6.87;;;5.43;;
54993;SDS011;40891;47.242;8.648;2023-04-08T07:11:09;6.93;;;5.20;;
54993;SDS011;40891;47.242;8.648;2023-04-08T07:13:34;8.30;;;5.00;;
54993;SDS011;40891;47.242;8.648;2023-04-08T07:15:59;7.43;;;5.30;;
54993;SDS011;40891;47.242;8.648;2023-04-08T07:18:25;5.50;;;4.47;;
54993;SDS011;40891;47.242;8.648;2023-04-08T07:20:51;6.63;;;5.20;;
54993;SDS011;40891;47.242;8.648;2023-04-08T07:23:18;5.30;;;4.43;;
54993;SDS011;40891;47.242;8.648;2023-04-08T07:25:44;6.90;;;5.50;;
54993;SDS011;40891;47.242;8.648;2023-04-08T07:28:10;7.10;;;5.40;;
54993;SDS011;40891;47.242;8.648;2023-04-08T07:30:36;7.20;;;5.47;;
54993;SDS011;40891;47.242;8.648;2023-04-08T07:33:01;7.90;;;5.77;;
54993;SDS011;40891;47.242;8.648;2023-04-08T07:35:27;7.17;;;5.27;;
54993;SDS011;40891;47.242;8.648;2023-04-08T07:37:53;7.73;;;5.50;;
54993;SDS011;40891;47.242;8.648;2023-04-08T07:40:19;6.70;;;5.33;;
54993;SDS011;40891;47.242;8.648;2023-04-08T07:42:44;4.97;;;4.27;;
54993;SDS011;40891;47.242;8.648;2023-04-08T07:45:10;6.30;;;4.70;;
54993;SDS011;40891;47.242;8.648;2023-04-08T07:47:35;6.27;;;4.70;;
54993;SDS011;40891;47.242;8.648;2023-04-08T07:50:01;5.57;;;4.50;;
54993;SDS011;40891;47.242;8.648;2023-04-08T07:52:28;5.93;;;4.30;;
54993;SDS011;40891;47.242;8.648;2023-04-08T07:54:54;5.53;;;4.43;;
54993;SDS011;40891;47.242;8.648;2023-04-08T07:57:19;4.63;;;4.07;;
54993;SDS011;40891;47.242;8.648;2023-04-08T07:59:45;7.20;;;4.33;;
54993;SDS011;40891;47.242;8.648;2023-04-08T08:02:10;4.37;;;3.67;;
54993;SDS011;40891;47.242;8.648;2023-04-08T08:04:36;5.53;;;4.23;;
54993;SDS011;40891;47.242;8.648;2023-04-08T08:07:01;5.77;;;4.33;;
54993;SDS011;40891;47.242;8.648;2023-04-08T08:09:26;5.80;;;4.00;;
54993;SDS011;40891;47.242;8.648;2023-04-08T08:11:52;6.80;;;4.40;;
54993;SDS011;40891;47.242;8.648;2023-04-08T08:14:17;5.87;;;4.50;;
54993;SDS011;40891;47.242;8.648;2023-04-08T08:16:42;7.07;;;4.20;;
54993;SDS011;40891;47.242;8.648;2023-04-08T08:19:08;5.17;;;4.40;;
54993;SDS011;40891;47.242;8.648;2023-04-08T08:21:37;6.93;;;4.37;;
54993;SDS011;40891;47.242;8.648;2023-04-08T08:24:03;5.13;;;4.40;;
54993;SDS011;40891;47.242;8.648;2023-04-08T08:26:29;5.03;;;4.17;;
54993;SDS011;40891;47.242;8.648;2023-04-08T08:28:54;4.80;;;3.93;;
54993;SDS011;40891;47.242;8.648;2023-04-08T08:31:20;5.60;;;4.53;;
54993;SDS011;40891;47.242;8.648;2023-04-08T08:33:45;4.63;;;4.03;;
54993;SDS011;40891;47.242;8.648;2023-04-08T08:36:11;6.33;;;4.30;;
54993;SDS011;40891;47.242;8.648;2023-04-08T08:38:37;4.97;;;4.10;;
54993;SDS011;40891;47.242;8.648;2023-04-08T08:41:02;4.80;;;4.17;;
54993;SDS011;40891;47.242;8.648;2023-04-08T08:43:28;4.30;;;3.90;;
54993;SDS011;40891;47.242;8.648;2023-04-08T08:45:57;4.67;;;4.13;;
54993;SDS011;40891;47.242;8.648;2023-04-08T08:48:23;6.57;;;3.97;;
54993;SDS011;40891;47.242;8.648;2023-04-08T08:50:49;6.03;;;4.03;;
54993;SDS011;40891;47.242;8.648;2023-04-08T08:53:15;5.50;;;3.80;;
54993;SDS011;40891;47.242;8.648;2023-04-08T08:55:40;6.33;;;4.33;;
54993;SDS011;40891;47.242;8.648;2023-04-08T08:58:06;5.93;;;3.80;;
54993;SDS011;40891;47.242;8.648;2023-04-08T09:00:32;6.60;;;3.90;;
54993;SDS011;40891;47.242;8.648;2023-04-08T09:03:14;5.13;;;4.10;;
54993;SDS011;40891;47.242;8.648;2023-04-08T09:05:51;5.00;;;3.90;;
54993;SDS011;40891;47.242;8.648;2023-04-08T09:10:50;5.13;;;4.30;;
54993;SDS011;40891;47.242;8.648;2023-04-08T09:13:15;4.30;;;3.90;;
54993;SDS011;40891;47.242;8.648;2023-04-08T09:16:03;4.90;;;4.20;;
54993;SDS011;40891;47.242;8.648;2023-04-08T09:18:30;4.80;;;3.53;;
54993;SDS011;40891;47.242;8.648;2023-04-08T09:20:59;5.73;;;3.93;;
54993;SDS011;40891;47.242;8.648;2023-04-08T09:28:34;3.80;;;3.17;;
54993;SDS011;40891;47.242;8.648;2023-04-08T09:31:05;4.95;;;4.07;;
54993;SDS011;40891;47.242;8.648;2023-04-08T09:33:55;4.22;;;3.45;;
54993;SDS011;40891;47.242;8.648;2023-04-08T09:36:25;4.93;;;3.55;;
54993;SDS011;40891;47.242;8.648;2023-04-08T09:38:51;6.17;;;3.37;;
54993;SDS011;40891;47.242;8.648;2023-04-08T09:41:17;3.45;;;2.90;;
54993;SDS011;40891;47.242;8.648;2023-04-08T09:43:48;5.00;;;3.03;;
54993;SDS011;40891;47.242;8.648;2023-04-08T09:46:16;3.45;;;3.00;;
54993;SDS011;40891;47.242;8.648;2023-04-08T09:48:55;3.40;;;3.00;;
54993;SDS011;40891;47.242;8.648;2023-04-08T09:51:32;4.30;;;3.20;;
54993;SDS011;40891;47.242;8.648;2023-04-08T09:54:05;3.40;;;3.10;;
54993;SDS011;40891;47.242;8.648;2023-04-08T09:56:39;4.35;;;3.20;;
54993;SDS011;40891;47.242;8.648;2023-04-08T09:59:12;3.63;;;3.30;;
54993;SDS011;40891;47.242;8.648;2023-04-08T10:01:44;4.00;;;3.40;;
54993;SDS011;40891;47.242;8.648;2023-04-08T10:04:14;5.10;;;3.15;;
54993;SDS011;40891;47.242;8.648;2023-04-08T10:06:43;3.90;;;3.40;;
54993;SDS011;40891;47.242;8.648;2023-04-08T10:09:08;3.97;;;3.20;;
54993;SDS011;40891;47.242;8.648;2023-04-08T10:11:35;3.58;;;2.88;;
54993;SDS011;40891;47.242;8.648;2023-04-08T10:14:01;3.60;;;3.00;;
54993;SDS011;40891;47.242;8.648;2023-04-08T10:16:26;3.15;;;2.60;;
54993;SDS011;40891;47.242;8.648;2023-04-08T10:18:54;3.50;;;3.10;;
54993;SDS011;40891;47.242;8.648;2023-04-08T10:21:33;3.92;;;3.17;;
54993;SDS011;40891;47.242;8.648;2023-04-08T10:23:59;3.70;;;3.40;;
54993;SDS011;40891;47.242;8.648;2023-04-08T10:26:34;3.85;;;2.90;;
54993;SDS011;40891;47.242;8.648;2023-04-08T10:31:41;6.15;;;3.20;;
54993;SDS011;40891;47.242;8.648;2023-04-08T10:36:42;3.63;;;2.95;;
54993;SDS011;40891;47.242;8.648;2023-04-08T10:39:11;4.22;;;3.25;;
54993;SDS011;40891;47.242;8.648;2023-04-08T10:41:47;4.40;;;3.25;;
54993;SDS011;40891;47.242;8.648;2023-04-08T10:44:35;5.80;;;3.00;;
54993;SDS011;40891;47.242;8.648;2023-04-08T10:46:59;4.00;;;3.58;;
54993;SDS011;40891;47.242;8.648;2023-04-08T10:49:31;5.05;;;4.00;;
54993;SDS011;40891;47.242;8.648;2023-04-08T10:51:57;5.10;;;4.13;;
54993;SDS011;40891;47.242;8.648;2023-04-08T10:54:23;4.13;;;3.72;;
54993;SDS011;40891;47.242;8.648;2023-04-08T10:56:49;7.00;;;3.67;;
54993;SDS011;40891;47.242;8.648;2023-04-08T10:59:25;6.63;;;3.67;;
54993;SDS011;40891;47.242;8.648;2023-04-08T11:01:52;4.07;;;3.67;;
54993;SDS011;40891;47.242;8.648;2023-04-08T11:04:17;5.45;;;3.97;;
54993;SDS011;40891;47.242;8.648;2023-04-08T11:06:44;4.25;;;3.85;;
54993;SDS011;40891;47.242;8.648;2023-04-08T11:09:11;4.22;;;3.80;;
54993;SDS011;40891;47.242;8.648;2023-04-08T11:11:37;4.60;;;3.60;;
54993;SDS011;40891;47.242;8.648;2023-04-08T11:14:03;4.28;;;3.63;;
54993;SDS011;40891;47.242;8.648;2023-04-08T11:16:29;3.97;;;3.58;;
54993;SDS011;40891;47.242;8.648;2023-04-08T11:18:56;3.80;;;3.40;;
54993;SDS011;40891;47.242;8.648;2023-04-08T11:21:22;4.28;;;3.88;;
54993;SDS011;40891;47.242;8.648;2023-04-08T11:23:48;4.25;;;3.72;;
54993;SDS011;40891;47.242;8.648;2023-04-08T11:26:14;5.35;;;3.92;;
54993;SDS011;40891;47.242;8.648;2023-04-08T11:28:40;3.67;;;3.33;;
54993;SDS011;40891;47.242;8.648;2023-04-08T11:31:05;4.18;;;3.78;;
54993;SDS011;40891;47.242;8.648;2023-04-08T11:33:33;4.78;;;3.63;;
54993;SDS011;40891;47.242;8.648;2023-04-08T11:35:59;5.47;;;4.10;;
54993;SDS011;40891;47.242;8.648;2023-04-08T11:38:28;4.95;;;4.35;;
54993;SDS011;40891;47.242;8.648;2023-04-08T11:40:54;4.88;;;4.20;;
54993;SDS011;40891;47.242;8.648;2023-04-08T11:43:20;6.32;;;4.57;;
54993;SDS011;40891;47.242;8.648;2023-04-08T11:45:47;4.90;;;4.50;;
54993;SDS011;40891;47.242;8.648;2023-04-08T11:48:13;5.22;;;4.32;;
54993;SDS011;40891;47.242;8.648;2023-04-08T11:50:40;5.10;;;4.60;;
54993;SDS011;40891;47.242;8.648;2023-04-08T11:53:16;6.15;;;5.18;;
54993;SDS011;40891;47.242;8.648;2023-04-08T11:55:42;5.82;;;3.97;;
54993;SDS011;40891;47.242;8.648;2023-04-08T11:58:08;5.20;;;4.70;;
54993;SDS011;40891;47.242;8.648;2023-04-08T12:00:33;6.45;;;4.28;;
54993;SDS011;40891;47.242;8.648;2023-04-08T12:02:58;4.63;;;3.70;;
54993;SDS011;40891;47.242;8.648;2023-04-08T12:05:24;4.95;;;3.83;;
54993;SDS011;40891;47.242;8.648;2023-04-08T12:07:49;4.72;;;4.13;;
54993;SDS011;40891;47.242;8.648;2023-04-08T12:10:15;5.20;;;4.20;;
54993;SDS011;40891;47.242;8.648;2023-04-08T12:12:41;6.05;;;4.20;;
54993;SDS011;40891;47.242;8.648;2023-04-08T12:15:06;5.10;;;4.70;;
54993;SDS011;40891;47.242;8.648;2023-04-08T12:17:32;5.07;;;4.40;;
54993;SDS011;40891;47.242;8.648;2023-04-08T12:19:58;5.32;;;4.60;;
54993;SDS011;40891;47.242;8.648;2023-04-08T12:22:23;6.28;;;4.95;;
54993;SDS011;40891;47.242;8.648;2023-04-08T12:24:49;5.78;;;4.82;;
54993;SDS011;40891;47.242;8.648;2023-04-08T12:27:15;5.90;;;5.30;;
54993;SDS011;40891;47.242;8.648;2023-04-08T12:29:40;7.35;;;4.95;;
54993;SDS011;40891;47.242;8.648;2023-04-08T12:32:05;5.25;;;4.75;;
54993;SDS011;40891;47.242;8.648;2023-04-08T12:34:31;6.07;;;5.22;;
54993;SDS011;40891;47.242;8.648;2023-04-08T12:36:57;5.72;;;4.85;;
54993;SDS011;40891;47.242;8.648;2023-04-08T12:39:23;4.80;;;4.35;;
54993;SDS011;40891;47.242;8.648;2023-04-08T12:41:48;4.90;;;4.40;;
54993;SDS011;40891;47.242;8.648;2023-04-08T12:44:13;5.05;;;3.97;;
54993;SDS011;40891;47.242;8.648;2023-04-08T12:46:39;4.68;;;4.20;;
54993;SDS011;40891;47.242;8.648;2023-04-08T12:49:04;4.65;;;3.83;;
54993;SDS011;40891;47.242;8.648;2023-04-08T12:51:29;4.13;;;3.70;;
54993;SDS011;40891;47.242;8.648;2023-04-08T12:53:56;4.30;;;3.90;;
54993;SDS011;40891;47.242;8.648;2023-04-08T12:56:21;4.90;;;3.55;;
54993;SDS011;40891;47.242;8.648;2023-04-08T12:58:46;4.68;;;3.97;;
54993;SDS011;40891;47.242;8.648;2023-04-08T13:01:12;4.72;;;3.95;;
54993;SDS011;40891;47.242;8.648;2023-04-08T13:03:37;5.43;;;3.35;;
54993;SDS011;40891;47.242;8.648;2023-04-08T13:06:03;3.40;;;3.10;;
54993;SDS011;40891;47.242;8.648;2023-04-08T13:08:29;3.97;;;3.58;;
54993;SDS011;40891;47.242;8.648;2023-04-08T13:10:55;4.78;;;4.00;;
54993;SDS011;40891;47.242;8.648;2023-04-08T13:13:20;4.85;;;4.35;;
54993;SDS011;40891;47.242;8.648;2023-04-08T13:15:45;5.10;;;4.40;;
54993;SDS011;40891;47.242;8.648;2023-04-08T13:18:11;5.65;;;5.07;;
54993;SDS011;40891;47.242;8.648;2023-04-08T13:20:37;5.20;;;4.70;;
54993;SDS011;40891;47.242;8.648;2023-04-08T13:23:02;5.35;;;4.85;;
54993;SDS011;40891;47.242;8.648;2023-04-08T13:25:28;5.90;;;4.45;;
54993;SDS011;40891;47.242;8.648;2023-04-08T13:27:53;5.57;;;4.97;;
54993;SDS011;40891;47.242;8.648;2023-04-08T13:30:19;4.80;;;4.30;;
54993;SDS011;40891;47.242;8.648;2023-04-08T13:32:44;5.25;;;4.25;;
54993;SDS011;40891;47.242;8.648;2023-04-08T13:35:10;5.15;;;4.15;;
54993;SDS011;40891;47.242;8.648;2023-04-08T13:37:35;4.10;;;3.65;;
54993;SDS011;40891;47.242;8.648;2023-04-08T13:40:00;4.25;;;3.70;;
54993;SDS011;40891;47.242;8.648;2023-04-08T13:42:26;5.07;;;3.70;;
54993;SDS011;40891;47.242;8.648;2023-04-08T13:44:51;4.13;;;3.72;;
54993;SDS011;40891;47.242;8.648;2023-04-08T13:47:17;5.20;;;3.80;;
54993;SDS011;40891;47.242;8.648;2023-04-08T13:49:42;4.43;;;3.90;;
54993;SDS011;40891;47.242;8.648;2023-04-08T13:52:08;4.30;;;3.90;;
54993;SDS011;40891;47.242;8.648;2023-04-08T13:54:33;4.45;;;4.05;;
54993;SDS011;40891;47.242;8.648;2023-04-08T13:56:59;4.07;;;3.67;;
54993;SDS011;40891;47.242;8.648;2023-04-08T13:59:25;4.28;;;3.83;;
54993;SDS011;40891;47.242;8.648;2023-04-08T14:01:50;4.10;;;3.67;;
54993;SDS011;40891;47.242;8.648;2023-04-08T14:04:18;4.07;;;3.67;;
54993;SDS011;40891;47.242;8.648;2023-04-08T14:06:44;6.60;;;4.70;;
54993;SDS011;40891;47.242;8.648;2023-04-08T14:09:10;7.65;;;5.30;;
54993;SDS011;40891;47.242;8.648;2023-04-08T14:11:35;7.10;;;5.55;;
54993;SDS011;40891;47.242;8.648;2023-04-08T14:14:00;6.22;;;5.00;;
54993;SDS011;40891;47.242;8.648;2023-04-08T14:16:26;9.25;;;5.70;;
54993;SDS011;40891;47.242;8.648;2023-04-08T14:18:51;6.80;;;5.22;;
54993;SDS011;40891;47.242;8.648;2023-04-08T14:21:17;5.78;;;4.70;;
54993;SDS011;40891;47.242;8.648;2023-04-08T14:23:42;6.83;;;5.63;;
54993;SDS011;40891;47.242;8.648;2023-04-08T14:26:08;6.00;;;5.13;;
54993;SDS011;40891;47.242;8.648;2023-04-08T14:28:33;6.63;;;5.72;;
54993;SDS011;40891;47.242;8.648;2023-04-08T14:30:58;8.80;;;6.07;;
54993;SDS011;40891;47.242;8.648;2023-04-08T14:33:24;7.03;;;5.67;;
54993;SDS011;40891;47.242;8.648;2023-04-08T14:35:51;8.83;;;5.60;;
54993;SDS011;40891;47.242;8.648;2023-04-08T14:38:17;6.67;;;5.90;;
54993;SDS011;40891;47.242;8.648;2023-04-08T14:40:42;7.83;;;6.13;;
54993;SDS011;40891;47.242;8.648;2023-04-08T14:43:07;6.77;;;5.67;;
54993;SDS011;40891;47.242;8.648;2023-04-08T14:45:32;6.67;;;5.17;;
54993;SDS011;40891;47.242;8.648;2023-04-08T14:47:58;6.83;;;5.43;;
54993;SDS011;40891;47.242;8.648;2023-04-08T14:50:23;7.87;;;6.47;;
54993;SDS011;40891;47.242;8.648;2023-04-08T14:52:48;8.30;;;5.70;;
54993;SDS011;40891;47.242;8.648;2023-04-08T14:55:14;8.50;;;6.20;;
54993;SDS011;40891;47.242;8.648;2023-04-08T14:57:39;8.33;;;6.10;;
54993;SDS011;40891;47.242;8.648;2023-04-08T15:00:05;7.17;;;6.27;;